Time;durP1;ratioP1;P1;durP2;ratioP2;P2;SDS_P1;SDS_P2;PMS_P1;PMS_P2;Temp;Humidity;BMP_temperature;BMP_pressure;BME280_temperature;BME280_humidity;BME280_pressure;Samples;Min_cycle;Max_cycle;Signal;HPM_P1;HPM_P2
2021/07/10 00:01:16;;;;;;;13.02;11.85;;;15.00;99.90;;;;;;4918491;29;20650;-49
2021/07/10 00:03:45;;;;;;;12.77;11.57;;;15.10;99.90;;;;;;4918556;29;20217;-50
2021/07/10 00:06:13;;;;;;;12.50;11.40;;;15.00;99.90;;;;;;4918470;29;20260;-49
2021/07/10 00:08:41;;;;;;;13.30;12.10;;;15.00;99.90;;;;;;4918293;29;20217;-51
2021/07/10 00:11:09;;;;;;;12.40;11.23;;;14.90;99.90;;;;;;4918186;29;20220;-49
2021/07/10 00:13:38;;;;;;;13.13;11.80;;;14.90;99.90;;;;;;4918437;29;20319;-49
2021/07/10 00:16:06;;;;;;;13.35;12.10;;;14.90;99.90;;;;;;4918161;29;20288;-50
2021/07/10 00:18:35;;;;;;;13.27;12.18;;;14.80;99.90;;;;;;4918191;29;20213;-47
2021/07/10 00:21:03;;;;;;;14.07;12.90;;;14.80;99.90;;;;;;4918091;29;20650;-47
2021/07/10 00:23:32;;;;;;;13.75;12.43;;;14.80;99.90;;;;;;4918096;29;20324;-47
2021/07/10 00:26:00;;;;;;;14.60;13.23;;;14.80;99.90;;;;;;4918368;29;20299;-48
2021/07/10 00:28:28;;;;;;;13.35;12.25;;;14.80;99.90;;;;;;4918119;29;20304;-47
2021/07/10 00:30:57;;;;;;;14.48;11.98;;;14.80;99.90;;;;;;4918003;29;20312;-52
2021/07/10 00:33:25;;;;;;;12.20;11.20;;;14.80;99.90;;;;;;4918116;29;20308;-52
2021/07/10 00:35:53;;;;;;;13.10;11.90;;;14.70;99.90;;;;;;4917878;29;20646;-50
2021/07/10 00:38:21;;;;;;;14.13;12.70;;;14.70;99.90;;;;;;4917925;29;20299;-50
2021/07/10 00:40:49;;;;;;;13.50;12.02;;;14.70;99.90;;;;;;4917807;29;20213;-46
2021/07/10 00:43:17;;;;;;;14.25;12.75;;;14.70;99.90;;;;;;4917674;29;20312;-50
2021/07/10 00:45:45;;;;;;;14.27;12.90;;;14.70;99.90;;;;;;4917693;29;20327;-51
2021/07/10 00:48:14;;;;;;;15.57;14.13;;;14.70;99.90;;;;;;4917641;29;20240;-49
2021/07/10 00:50:42;;;;;;;13.82;12.57;;;14.70;99.90;;;;;;4917451;29;20242;-51
2021/07/10 00:53:11;;;;;;;14.90;13.45;;;14.60;99.90;;;;;;4917887;29;20319;-54
2021/07/10 00:55:39;;;;;;;14.68;13.27;;;14.60;99.90;;;;;;4917371;29;20748;-48
2021/07/10 00:58:07;;;;;;;14.57;13.07;;;14.60;99.90;;;;;;4917235;29;20716;-46
2021/07/10 01:00:35;;;;;;;13.00;11.95;;;14.60;99.90;;;;;;4917414;29;20303;-49
2021/07/10 01:03:04;;;;;;;14.13;12.63;;;14.60;99.90;;;;;;4917233;29;20311;-50
2021/07/10 01:05:34;;;;;;;15.10;13.73;;;14.60;99.90;;;;;;4917045;29;20230;-52
2021/07/10 01:08:02;;;;;;;14.48;13.18;;;14.60;99.90;;;;;;4917317;29;20249;-50
2021/07/10 01:10:30;;;;;;;14.75;13.25;;;14.50;99.90;;;;;;4917067;29;20631;-50
2021/07/10 01:12:58;;;;;;;13.98;12.68;;;14.50;99.90;;;;;;4917231;29;20213;-51
2021/07/10 01:15:27;;;;;;;14.82;13.40;;;14.50;99.90;;;;;;4917231;29;20304;-49
2021/07/10 01:17:57;;;;;;;14.15;12.98;;;14.50;99.90;;;;;;4917078;29;20617;-51
2021/07/10 01:20:27;;;;;;;15.70;14.35;;;14.40;99.90;;;;;;4917346;29;20244;-50
2021/07/10 01:22:57;;;;;;;13.73;12.52;;;14.50;99.90;;;;;;4916946;29;20263;-53
2021/07/10 01:25:27;;;;;;;12.60;11.40;;;14.40;99.90;;;;;;4916873;29;20288;-50
2021/07/10 01:27:55;;;;;;;13.93;12.63;;;14.40;99.90;;;;;;4916946;29;20232;-51
2021/07/10 01:30:25;;;;;;;13.98;12.75;;;14.40;99.90;;;;;;4916954;29;20231;-51
2021/07/10 01:32:54;;;;;;;14.32;12.90;;;14.30;99.90;;;;;;4916705;29;20519;-49
2021/07/10 01:35:23;;;;;;;14.35;12.95;;;14.30;99.90;;;;;;4917027;29;20239;-47
2021/07/10 01:37:52;;;;;;;14.68;13.43;;;14.30;99.90;;;;;;4916969;29;20655;-51
2021/07/10 01:40:25;;;;;;;14.13;12.82;;;14.30;99.90;;;;;;4916670;29;20300;-46
2021/07/10 01:42:54;;;;;;;14.15;12.90;;;14.30;99.90;;;;;;4916496;29;20354;-48
2021/07/10 01:45:22;;;;;;;17.10;13.63;;;14.30;99.90;;;;;;4916860;29;20212;-52
2021/07/10 01:47:51;;;;;;;13.90;12.68;;;14.30;99.90;;;;;;4916666;29;20240;-54
2021/07/10 01:50:20;;;;;;;14.60;13.20;;;14.20;99.90;;;;;;4916967;29;20233;-53
2021/07/10 01:52:48;;;;;;;14.07;12.88;;;14.20;99.90;;;;;;4916989;29;20311;-50
2021/07/10 01:55:16;;;;;;;12.60;11.60;;;14.20;99.90;;;;;;4916554;29;20300;-53
2021/07/10 01:57:48;;;;;;;12.50;11.38;;;14.20;99.90;;;;;;4916605;29;20303;-50
2021/07/10 02:00:19;;;;;;;12.55;11.45;;;14.10;99.90;;;;;;4916511;29;20625;-49
2021/07/10 02:02:48;;;;;;;13.05;11.35;;;14.10;99.90;;;;;;4916711;29;20295;-50
2021/07/10 02:05:18;;;;;;;11.95;10.82;;;14.10;99.90;;;;;;4916561;29;20352;-49
2021/07/10 02:07:46;;;;;;;11.68;10.57;;;14.10;99.90;;;;;;4916491;29;20624;-51
2021/07/10 02:10:16;;;;;;;11.18;10.27;;;14.00;99.90;;;;;;4916766;29;20223;-50
2021/07/10 02:12:46;;;;;;;12.10;10.90;;;14.00;99.90;;;;;;4916701;29;20307;-53
2021/07/10 02:15:15;;;;;;;12.07;11.07;;;14.00;99.90;;;;;;4916430;29;20664;-49
2021/07/10 02:17:44;;;;;;;11.68;10.57;;;14.00;99.90;;;;;;4916408;29;20215;-54
2021/07/10 02:20:14;;;;;;;12.75;11.65;;;13.90;99.90;;;;;;4916278;29;20558;-51
2021/07/10 02:22:43;;;;;;;12.60;11.50;;;13.90;99.90;;;;;;4916473;29;20221;-52
2021/07/10 02:25:13;;;;;;;11.82;10.85;;;13.90;99.90;;;;;;4916425;29;20289;-48
2021/07/10 02:27:42;;;;;;;15.95;11.05;;;13.90;99.90;;;;;;4916197;29;20247;-48
2021/07/10 02:30:13;;;;;;;11.27;10.38;;;13.90;99.90;;;;;;4916247;29;20216;-48
2021/07/10 02:32:41;;;;;;;13.50;10.98;;;13.80;99.90;;;;;;4916149;29;20740;-49
2021/07/10 02:35:11;;;;;;;11.70;10.60;;;13.80;99.90;;;;;;4916353;29;20245;-47
2021/07/10 02:37:40;;;;;;;11.50;10.50;;;13.80;99.90;;;;;;4916223;29;20288;-51
2021/07/10 02:40:10;;;;;;;12.45;11.43;;;13.80;99.90;;;;;;4916096;29;20603;-48
2021/07/10 02:42:38;;;;;;;12.27;11.18;;;13.70;99.90;;;;;;4916268;29;20212;-52
2021/07/10 02:45:11;;;;;;;12.30;11.23;;;13.70;99.90;;;;;;4915922;29;20337;-53
2021/07/10 02:47:40;;;;;;;12.27;11.13;;;13.70;99.90;;;;;;4915723;29;20737;-51
2021/07/10 02:50:11;;;;;;;12.13;11.07;;;13.70;99.90;;;;;;4916089;29;20303;-48
2021/07/10 02:52:40;;;;;;;12.32;11.07;;;13.60;99.90;;;;;;4915843;29;20584;-51
2021/07/10 02:55:10;;;;;;;12.38;11.38;;;13.60;99.90;;;;;;4915889;29;20767;-51
2021/07/10 02:57:38;;;;;;;13.02;11.82;;;13.50;99.90;;;;;;4916130;29;20575;-48
2021/07/10 03:00:09;;;;;;;13.05;11.70;;;13.50;99.90;;;;;;4916268;29;20311;-50
2021/07/10 03:02:38;;;;;;;13.55;12.35;;;13.50;99.90;;;;;;4915849;29;20624;-49
2021/07/10 03:05:08;;;;;;;13.52;12.30;;;13.40;99.90;;;;;;4916095;29;20248;-48
2021/07/10 03:07:36;;;;;;;12.38;11.18;;;13.40;99.90;;;;;;4916074;29;20242;-49
2021/07/10 03:10:05;;;;;;;14.00;12.65;;;13.50;99.90;;;;;;4915915;29;20311;-50
2021/07/10 03:12:33;;;;;;;12.13;10.75;;;13.40;99.90;;;;;;4915773;29;20303;-54
2021/07/10 03:15:01;;;;;;;10.82;9.93;;;13.40;99.90;;;;;;4915717;29;20732;-49
2021/07/10 03:17:29;;;;;;;11.23;10.32;;;13.40;99.90;;;;;;4915758;29;20219;-52
2021/07/10 03:19:58;;;;;;;12.35;11.25;;;13.40;99.90;;;;;;4915691;29;20309;-53
2021/07/10 03:22:27;;;;;;;12.10;11.00;;;13.50;99.90;;;;;;4915692;29;20236;-49
2021/07/10 03:24:55;;;;;;;13.45;10.82;;;13.40;99.90;;;;;;4915563;29;20259;-50
2021/07/10 03:27:23;;;;;;;11.27;10.32;;;13.40;99.90;;;;;;4915329;29;20772;-50
2021/07/10 03:29:50;;;;;;;12.05;10.18;;;13.40;99.90;;;;;;4915644;29;20590;-53
2021/07/10 03:32:18;;;;;;;10.98;9.98;;;13.40;99.90;;;;;;4915761;29;20696;-49
2021/07/10 03:34:46;;;;;;;11.50;10.18;;;13.40;99.90;;;;;;4915571;29;20216;-53
2021/07/10 03:37:15;;;;;;;11.77;10.52;;;13.40;99.90;;;;;;4915462;29;20300;-52
2021/07/10 03:39:43;;;;;;;11.57;10.50;;;13.40;99.90;;;;;;4915920;29;20227;-53
2021/07/10 03:42:11;;;;;;;12.93;11.60;;;13.40;99.90;;;;;;4915612;29;20651;-49
2021/07/10 03:44:39;;;;;;;11.98;10.98;;;13.40;99.90;;;;;;4915717;29;20307;-52
2021/07/10 03:47:07;;;;;;;12.45;11.35;;;13.40;99.90;;;;;;4915502;29;20250;-54
2021/07/10 03:49:35;;;;;;;13.18;12.05;;;13.30;99.90;;;;;;4915368;29;20213;-51
2021/07/10 03:52:04;;;;;;;13.00;11.50;;;13.40;99.90;;;;;;4915508;29;20307;-51
2021/07/10 03:54:33;;;;;;;11.43;10.43;;;13.40;99.90;;;;;;4915599;29;20241;-52
2021/07/10 03:57:01;;;;;;;9.88;9.13;;;13.40;99.90;;;;;;4915424;29;20236;-48
2021/07/10 03:59:28;;;;;;;11.15;9.98;;;13.50;99.90;;;;;;4915352;29;20296;-51
2021/07/10 04:01:56;;;;;;;10.18;9.18;;;13.50;99.90;;;;;;4915188;29;20221;-52
2021/07/10 04:04:24;;;;;;;10.40;9.43;;;13.60;99.90;;;;;;4915884;29;20217;-53
2021/07/10 04:06:53;;;;;;;11.25;9.85;;;13.60;99.90;;;;;;4918432;29;20240;-48
2021/07/10 04:09:21;;;;;;;12.57;10.55;;;13.70;99.90;;;;;;4918568;29;20680;-48
2021/07/10 04:11:50;;;;;;;12.15;11.05;;;13.70;99.90;;;;;;4918763;29;20247;-51
2021/07/10 04:14:18;;;;;;;15.85;12.52;;;13.70;99.90;;;;;;4918541;29;20300;-50
2021/07/10 04:16:46;;;;;;;12.48;11.48;;;13.70;99.90;;;;;;4918113;29;20251;-51
2021/07/10 04:19:14;;;;;;;12.13;11.07;;;13.80;99.90;;;;;;4918349;29;20304;-52
2021/07/10 04:21:42;;;;;;;12.35;11.15;;;13.90;99.90;;;;;;4918182;29;20227;-50
2021/07/10 04:24:10;;;;;;;12.55;11.18;;;13.90;99.90;;;;;;4918320;29;20755;-50
2021/07/10 04:26:38;;;;;;;16.95;15.15;;;14.00;99.90;;;;;;4918275;29;20263;-50
2021/07/10 04:29:07;;;;;;;13.40;12.27;;;14.10;99.90;;;;;;4918606;29;20216;-50
2021/07/10 04:31:35;;;;;;;11.73;10.73;;;14.20;99.90;;;;;;4918194;29;20517;-51
2021/07/10 04:34:03;;;;;;;12.23;11.15;;;14.20;99.90;;;;;;4918457;29;20300;-55
2021/07/10 04:36:31;;;;;;;11.63;10.55;;;14.30;99.90;;;;;;4918441;29;20319;-52
2021/07/10 04:38:59;;;;;;;12.70;11.60;;;14.40;99.90;;;;;;4918303;29;20225;-55
2021/07/10 04:41:27;;;;;;;11.85;10.60;;;14.40;99.90;;;;;;4918150;29;20248;-54
2021/07/10 04:43:55;;;;;;;11.77;10.70;;;14.50;99.90;;;;;;4918052;29;20300;-51
2021/07/10 04:46:24;;;;;;;11.82;10.80;;;14.60;99.90;;;;;;4918296;29;20663;-53
2021/07/10 04:48:52;;;;;;;10.73;9.82;;;14.60;99.90;;;;;;4918006;29;20268;-53
2021/07/10 04:51:20;;;;;;;11.25;10.35;;;14.70;99.90;;;;;;4917882;29;20240;-51
2021/07/10 04:53:48;;;;;;;10.57;9.68;;;14.80;99.90;;;;;;4917803;29;20249;-54
2021/07/10 04:56:16;;;;;;;11.57;10.55;;;14.80;99.90;;;;;;4917981;29;20329;-53
2021/07/10 04:58:44;;;;;;;10.77;9.90;;;14.90;99.90;;;;;;4917897;29;20243;-53
2021/07/10 05:01:13;;;;;;;11.95;10.85;;;15.00;99.90;;;;;;4917860;29;20618;-52
2021/07/10 05:03:42;;;;;;;11.75;10.82;;;15.00;99.90;;;;;;4917810;29;20232;-51
2021/07/10 05:06:11;;;;;;;11.75;10.68;;;15.00;99.90;;;;;;4917850;29;20299;-55
2021/07/10 05:08:39;;;;;;;11.63;10.63;;;15.10;99.90;;;;;;4917589;29;20808;-47
2021/07/10 05:11:06;;;;;;;11.02;10.15;;;15.20;99.90;;;;;;4917874;29;20225;-52
2021/07/10 05:13:34;;;;;;;12.52;11.50;;;15.30;99.90;;;;;;4918047;29;20248;-52
2021/07/10 05:16:02;;;;;;;11.25;10.35;;;15.40;99.90;;;;;;4916623;29;20752;-51
2021/07/10 05:18:30;;;;;;;10.77;9.88;;;15.50;99.90;;;;;;4917557;29;20308;-52
2021/07/10 05:21:00;;;;;;;10.40;9.60;;;15.60;99.90;;;;;;4917474;29;20336;-53
2021/07/10 05:23:28;;;;;;;10.68;9.77;;;15.70;99.90;;;;;;4917489;29;20307;-52
2021/07/10 05:25:56;;;;;;;11.80;10.80;;;15.80;99.90;;;;;;4917341;29;20646;-50
2021/07/10 05:28:23;;;;;;;11.48;10.60;;;16.00;99.90;;;;;;4917393;29;20331;-52
2021/07/10 05:30:51;;;;;;;11.07;10.27;;;16.10;99.90;;;;;;4917387;29;20414;-51
2021/07/10 05:33:20;;;;;;;11.55;10.45;;;16.20;99.90;;;;;;4917352;29;20557;-51
2021/07/10 05:35:48;;;;;;;12.50;11.40;;;16.20;99.90;;;;;;4917459;29;20303;-53
2021/07/10 05:38:18;;;;;;;12.93;11.82;;;16.30;99.90;;;;;;4917172;29;20212;-52
2021/07/10 05:40:45;;;;;;;12.65;11.60;;;16.40;99.90;;;;;;4917262;29;20304;-52
2021/07/10 05:43:14;;;;;;;12.18;11.18;;;16.50;99.90;;;;;;4917428;29;20760;-53
2021/07/10 05:45:42;;;;;;;12.40;11.25;;;16.60;99.90;;;;;;4917036;29;20319;-56
2021/07/10 05:48:10;;;;;;;12.23;11.27;;;16.70;99.90;;;;;;4916881;29;20671;-56
2021/07/10 05:50:37;;;;;;;12.43;11.30;;;16.80;99.90;;;;;;4916923;29;20303;-53
2021/07/10 05:53:07;;;;;;;11.90;10.90;;;16.80;99.90;;;;;;4917284;29;20216;-54
2021/07/10 05:55:37;;;;;;;11.05;10.15;;;16.90;99.90;;;;;;4917105;29;20248;-50
2021/07/10 05:58:05;;;;;;;11.80;10.73;;;16.90;99.90;;;;;;4916955;29;20208;-55
2021/07/10 06:00:33;;;;;;;11.40;10.40;;;17.00;99.90;;;;;;4916885;29;20312;-52
2021/07/10 06:03:02;;;;;;;12.20;10.95;;;17.00;99.90;;;;;;4916537;29;20225;-49
2021/07/10 06:05:30;;;;;;;12.63;11.32;;;17.00;99.90;;;;;;4916693;29;20213;-54
2021/07/10 06:07:58;;;;;;;13.02;11.82;;;17.10;99.90;;;;;;4916975;29;20235;-53
2021/07/10 06:10:26;;;;;;;13.18;12.07;;;17.10;99.90;;;;;;4916726;29;20217;-52
2021/07/10 06:12:55;;;;;;;13.50;12.30;;;17.10;99.90;;;;;;4916339;29;20217;-51
2021/07/10 06:15:23;;;;;;;13.25;12.05;;;17.20;99.90;;;;;;4916447;29;20675;-52
2021/07/10 06:17:51;;;;;;;14.30;13.10;;;17.20;99.90;;;;;;4916503;29;20212;-50
2021/07/10 06:20:21;;;;;;;13.95;12.65;;;17.30;99.90;;;;;;4916726;29;20591;-53
2021/07/10 06:22:52;;;;;;;13.30;12.10;;;17.40;99.90;;;;;;4916595;29;20308;-48
2021/07/10 06:25:20;;;;;;;16.80;14.80;;;17.40;99.90;;;;;;4916629;29;20767;-52
2021/07/10 06:27:50;;;;;;;15.00;13.70;;;17.60;99.90;;;;;;4916075;29;20212;-53
2021/07/10 06:30:20;;;;;;;15.23;13.73;;;17.60;99.90;;;;;;4916213;29;20296;-49
2021/07/10 06:32:48;;;;;;;15.45;14.00;;;17.60;99.90;;;;;;4916293;29;20252;-51
2021/07/10 06:35:17;;;;;;;14.52;13.07;;;17.70;99.90;;;;;;4916135;29;20217;-47
2021/07/10 06:37:45;;;;;;;15.73;14.20;;;17.80;99.90;;;;;;4916079;29;20223;-52
2021/07/10 06:40:15;;;;;;;15.70;14.30;;;17.80;99.90;;;;;;4915889;29;20219;-50
2021/07/10 06:42:44;;;;;;;16.25;14.77;;;17.90;99.90;;;;;;4915859;29;20296;-49
2021/07/10 06:45:14;;;;;;;16.08;14.57;;;18.00;99.90;;;;;;4915805;29;20726;-50
2021/07/10 06:47:45;;;;;;;15.60;14.05;;;18.00;99.90;;;;;;4915883;29;20252;-52
2021/07/10 06:50:16;;;;;;;15.13;13.73;;;18.10;99.90;;;;;;4916342;29;20408;-51
2021/07/10 06:52:47;;;;;;;16.77;15.15;;;18.20;99.90;;;;;;4919269;29;20260;-52
2021/07/10 06:55:16;;;;;;;14.75;13.57;;;18.30;99.90;;;;;;4915721;29;20628;-49
2021/07/10 06:57:44;;;;;;;16.20;14.40;;;18.40;99.90;;;;;;4915797;29;20256;-48
2021/07/10 07:00:15;;;;;;;15.50;14.02;;;18.40;99.90;;;;;;4915688;29;20297;-53
2021/07/10 07:02:44;;;;;;;13.65;12.43;;;18.50;99.90;;;;;;4915643;29;20588;-49
2021/07/10 07:05:13;;;;;;;15.75;14.27;;;18.60;99.90;;;;;;4915605;29;20243;-49
2021/07/10 07:07:41;;;;;;;15.07;13.68;;;18.60;99.90;;;;;;4915644;29;20252;-51
2021/07/10 07:10:11;;;;;;;14.73;13.45;;;18.60;99.90;;;;;;4915626;29;20319;-50
2021/07/10 07:12:40;;;;;;;13.45;12.35;;;18.60;99.90;;;;;;4915564;29;20254;-54
2021/07/10 07:15:11;;;;;;;13.90;11.82;;;18.70;99.90;;;;;;4915469;29;20245;-51
2021/07/10 07:17:39;;;;;;;12.63;11.55;;;18.80;99.90;;;;;;4915615;29;20223;-49
2021/07/10 07:20:12;;;;;;;14.48;13.07;;;18.90;99.90;;;;;;4915376;29;20656;-55
2021/07/10 07:22:43;;;;;;;15.05;12.25;;;18.90;99.90;;;;;;4915712;29;20213;-54
2021/07/10 07:25:12;;;;;;;13.65;12.55;;;19.00;99.90;;;;;;4916072;29;20303;-51
2021/07/10 07:27:40;;;;;;;13.38;12.32;;;19.10;99.90;;;;;;4915675;29;20295;-50
2021/07/10 07:30:10;;;;;;;11.80;10.80;;;19.30;99.90;;;;;;4916064;29;20328;-53
2021/07/10 07:32:38;;;;;;;11.48;10.45;;;19.50;99.90;;;;;;4915431;29;20250;-54
2021/07/10 07:35:11;;;;;;;12.68;11.45;;;19.60;99.90;;;;;;4915516;29;20227;-51
2021/07/10 07:37:39;;;;;;;12.80;11.60;;;19.60;99.90;;;;;;4915571;29;20558;-54
2021/07/10 07:40:10;;;;;;;11.40;10.50;;;19.60;99.90;;;;;;4917893;29;20209;-56
2021/07/10 07:42:38;;;;;;;11.10;10.13;;;19.80;99.90;;;;;;4921817;29;20217;-54
2021/07/10 07:45:08;;;;;;;12.02;10.93;;;20.00;99.90;;;;;;4919638;29;20316;-59
2021/07/10 07:47:37;;;;;;;10.75;9.68;;;20.00;99.90;;;;;;4919561;29;20803;-53
2021/07/10 07:50:06;;;;;;;10.80;9.85;;;20.10;99.90;;;;;;4920987;29;20712;-53
2021/07/10 07:52:36;;;;;;;10.25;9.18;;;20.20;99.90;;;;;;4918937;29;20339;-53
2021/07/10 07:55:06;;;;;;;8.88;8.20;;;20.40;99.90;;;;;;4918767;29;20219;-52
2021/07/10 07:57:37;;;;;;;7.78;7.07;;;20.60;99.90;;;;;;4918712;29;20227;-51
2021/07/10 08:00:09;;;;;;;9.07;8.18;;;20.80;99.90;;;;;;4918509;29;20240;-49
2021/07/10 08:02:37;;;;;;;8.73;8.02;;;20.80;99.90;;;;;;4918620;29;20308;-55
2021/07/10 08:05:06;;;;;;;8.75;7.95;;;20.70;99.90;;;;;;4918358;29;20779;-53
2021/07/10 08:07:35;;;;;;;8.73;8.02;;;20.70;99.90;;;;;;4918530;29;20587;-54
2021/07/10 08:10:11;;;;;;;9.50;8.70;;;20.80;99.90;;;;;;4918842;29;20288;-52
2021/07/10 08:12:40;;;;;;;9.48;8.57;;;20.80;99.90;;;;;;4918479;29;20300;-55
2021/07/10 08:15:09;;;;;;;10.07;9.25;;;20.70;99.90;;;;;;4918870;29;20213;-53
2021/07/10 08:17:41;;;;;;;9.65;8.85;;;20.70;99.90;;;;;;4918669;29;20343;-54
2021/07/10 08:20:11;;;;;;;10.13;9.23;;;20.60;99.90;;;;;;4918624;29;20212;-51
2021/07/10 08:22:40;;;;;;;10.18;9.27;;;20.60;99.90;;;;;;4918584;29;20257;-52
2021/07/10 08:25:10;;;;;;;8.95;8.25;;;20.50;99.90;;;;;;4918243;29;20308;-54
2021/07/10 08:27:38;;;;;;;9.43;8.52;;;20.50;99.90;;;;;;4918301;29;20248;-54
2021/07/10 08:30:08;;;;;;;9.73;8.73;;;20.60;99.90;;;;;;4918034;29;20283;-56
2021/07/10 08:32:36;;;;;;;9.75;8.95;;;20.70;99.90;;;;;;4918162;29;20752;-55
2021/07/10 08:35:05;;;;;;;8.88;7.93;;;20.80;99.90;;;;;;4918068;29;20216;-55
2021/07/10 08:37:33;;;;;;;9.55;8.75;;;20.90;99.90;;;;;;4918255;29;20223;-56
2021/07/10 08:40:04;;;;;;;9.45;8.57;;;20.90;99.90;;;;;;4918214;29;20311;-56
2021/07/10 08:42:31;;;;;;;10.13;9.18;;;20.90;99.90;;;;;;4918052;29;20243;-57
2021/07/10 08:45:04;;;;;;;9.88;9.07;;;21.00;99.90;;;;;;4918028;29;20260;-57
2021/07/10 08:47:35;;;;;;;9.50;8.75;;;21.00;99.90;;;;;;4917740;29;20345;-56
2021/07/10 08:50:05;;;;;;;9.25;8.52;;;21.00;99.90;;;;;;4917699;29;20697;-55
2021/07/10 08:52:35;;;;;;;11.15;10.25;;;21.00;99.90;;;;;;4917794;29;20673;-53
2021/07/10 08:55:07;;;;;;;10.57;9.68;;;21.10;99.90;;;;;;4917925;29;20311;-52
2021/07/10 08:57:36;;;;;;;10.05;9.02;;;21.00;99.90;;;;;;4917832;29;20213;-55
2021/07/10 09:00:06;;;;;;;9.82;8.93;;;21.00;99.90;;;;;;4916882;29;20209;-52
2021/07/10 09:02:35;;;;;;;9.15;8.35;;;21.00;99.90;;;;;;4917826;29;20307;-51
2021/07/10 09:05:06;;;;;;;10.38;9.57;;;21.00;99.90;;;;;;4917685;29;20216;-52
2021/07/10 09:07:33;;;;;;;10.20;9.40;;;21.00;99.90;;;;;;4917393;29;20319;-51
2021/07/10 09:10:01;;;;;;;10.68;9.75;;;21.00;99.90;;;;;;4917439;29;20239;-50
2021/07/10 09:12:32;;;;;;;11.15;10.25;;;21.00;99.90;;;;;;4917480;29;20708;-50
2021/07/10 09:15:17;;;;;;;9.93;9.13;;;21.00;99.90;;;;;;4917336;29;20642;-53
2021/07/10 09:17:46;;;;;;;9.98;9.18;;;21.10;99.90;;;;;;4917554;29;20352;-50
2021/07/10 09:20:21;;;;;;;10.30;9.50;;;21.20;99.90;;;;;;4917473;29;20295;-50
2021/07/10 09:22:49;;;;;;;9.18;8.48;;;21.20;99.90;;;;;;4917267;29;20582;-53
2021/07/10 09:25:26;;;;;;;11.13;10.23;;;21.20;99.90;;;;;;4917204;29;20233;-52
2021/07/10 09:27:57;;;;;;;9.27;8.38;;;21.30;99.90;;;;;;4917165;29;20212;-55
2021/07/10 09:30:33;;;;;;;8.20;7.32;;;21.40;99.90;;;;;;4917409;29;20229;-53
2021/07/10 09:33:12;;;;;;;9.43;8.68;;;21.50;99.90;;;;;;4917498;29;20219;-49
2021/07/10 09:35:52;;;;;;;9.20;8.38;;;21.60;99.90;;;;;;4916929;29;20227;-54
2021/07/10 09:38:21;;;;;;;9.73;8.93;;;21.70;99.90;;;;;;4917051;29;20226;-53
2021/07/10 09:41:01;;;;;;;9.48;8.65;;;21.80;99.90;;;;;;4917110;29;20212;-52
2021/07/10 09:43:33;;;;;;;10.32;9.35;;;21.90;99.90;;;;;;4916715;29;20686;-53
2021/07/10 09:46:06;;;;;;;8.98;8.27;;;21.90;99.90;;;;;;4916919;29;20225;-54
2021/07/10 09:48:36;;;;;;;8.63;7.93;;;22.00;99.90;;;;;;4916837;29;20258;-55
2021/07/10 09:51:18;;;;;;;8.23;7.53;;;22.00;99.90;;;;;;4916600;29;20238;-54
2021/07/10 09:54:01;;;;;;;8.00;7.32;;;22.00;99.90;;;;;;4916749;29;20236;-52
2021/07/10 09:56:31;;;;;;;9.27;8.38;;;22.10;99.90;;;;;;4916439;29;20583;-53
2021/07/10 09:59:00;;;;;;;10.15;9.35;;;22.10;99.90;;;;;;4916821;29;20303;-55
2021/07/10 10:01:31;;;;;;;8.85;8.02;;;22.20;99.90;;;;;;4916289;29;20268;-54
2021/07/10 10:03:59;;;;;;;7.60;7.00;;;22.30;99.90;;;;;;4916135;29;20642;-50
2021/07/10 10:06:31;;;;;;;8.25;7.55;;;22.40;99.90;;;;;;4916277;29;20255;-54
2021/07/10 10:09:00;;;;;;;7.05;6.45;;;22.50;99.90;;;;;;4916105;29;20299;-51
2021/07/10 10:11:50;;;;;;;8.07;7.38;;;22.50;99.90;;;;;;4915885;29;20692;-54
2021/07/10 10:14:20;;;;;;;7.93;7.00;;;22.60;99.90;;;;;;4916272;29;20320;-54
2021/07/10 10:16:51;;;;;;;7.63;6.05;;;22.60;99.90;;;;;;4916436;29;20216;-55
2021/07/10 10:19:21;;;;;;;6.38;5.80;;;22.60;99.90;;;;;;4915884;29;20304;-54
2021/07/10 10:21:54;;;;;;;5.38;4.85;;;22.70;99.90;;;;;;4916246;29;20718;-53
2021/07/10 10:24:28;;;;;;;5.88;5.05;;;22.80;99.90;;;;;;4916261;29;20209;-53
2021/07/10 10:26:57;;;;;;;5.15;4.75;;;22.80;99.90;;;;;;4916304;29;20235;-54
2021/07/10 10:29:29;;;;;;;4.45;4.15;;;22.80;99.90;;;;;;4916084;29;20308;-51
2021/07/10 10:31:58;;;;;;;5.38;4.88;;;22.80;99.90;;;;;;4915587;29;20233;-52
2021/07/10 10:34:27;;;;;;;6.43;5.82;;;22.90;99.90;;;;;;4915906;29;20599;-54
2021/07/10 10:36:58;;;;;;;5.90;5.40;;;23.00;99.90;;;;;;4916067;29;20511;-55
2021/07/10 10:39:29;;;;;;;4.82;4.40;;;23.20;99.90;;;;;;4915758;29;20571;-54
2021/07/10 10:42:01;;;;;;;5.55;4.47;;;23.30;99.90;;;;;;4915803;29;20217;-52
2021/07/10 10:44:37;;;;;;;5.97;4.28;;;23.40;99.90;;;;;;4915805;29;20216;-52
2021/07/10 10:47:08;;;;;;;3.80;3.50;;;23.50;99.90;;;;;;4916108;29;20216;-53
2021/07/10 10:49:42;;;;;;;5.05;4.55;;;23.50;99.70;;;;;;4916015;29;20227;-51
2021/07/10 10:52:18;;;;;;;4.28;3.97;;;23.60;99.40;;;;;;4915828;29;20712;-48
2021/07/10 10:54:47;;;;;;;4.85;4.43;;;23.70;99.30;;;;;;4915565;29;20667;-51
2021/07/10 10:57:15;;;;;;;5.10;4.60;;;23.70;99.20;;;;;;4915913;29;20219;-51
2021/07/10 10:59:45;;;;;;;4.15;3.85;;;23.70;99.10;;;;;;4915955;29;20557;-50
2021/07/10 11:02:46;;;;;;;4.22;3.92;;;23.70;99.00;;;;;;4915505;29;20275;-53
2021/07/10 11:05:14;;;;;;;4.70;4.30;;;23.70;98.70;;;;;;4915482;29;20263;-50
2021/07/10 11:07:42;;;;;;;4.38;3.97;;;23.80;98.80;;;;;;4915629;29;20213;-52
2021/07/10 11:10:14;;;;;;;4.95;4.45;;;23.90;98.70;;;;;;4915645;29;20632;-52
2021/07/10 11:12:56;;;;;;;4.38;4.03;;;24.00;98.40;;;;;;4915551;29;20219;-50
2021/07/10 11:15:43;;;;;;;4.03;3.72;;;24.10;97.70;;;;;;4918076;29;20267;-51
2021/07/10 11:18:28;;;;;;;4.05;3.75;;;24.20;97.50;;;;;;4919184;29;20208;-50
2021/07/10 11:20:57;;;;;;;10.95;3.70;;;24.10;97.60;;;;;;4919689;29;20244;-52
2021/07/10 11:23:27;;;;;;;3.45;3.20;;;24.10;97.40;;;;;;4919394;29;20231;-51
2021/07/10 11:25:56;;;;;;;3.78;3.47;;;24.10;97.50;;;;;;4919658;29;20639;-51
2021/07/10 11:28:25;;;;;;;3.70;3.50;;;24.10;97.50;;;;;;4919301;29;20219;-52
2021/07/10 11:30:56;;;;;;;4.00;3.10;;;24.20;97.20;;;;;;4919333;29;20284;-48
2021/07/10 11:34:00;;;;;;;3.47;2.97;;;24.10;96.90;;;;;;4919181;29;20217;-52
2021/07/10 11:36:57;;;;;;;3.17;2.97;;;24.10;96.60;;;;;;4918781;29;20307;-52
2021/07/10 11:39:39;;;;;;;3.78;3.47;;;24.00;96.70;;;;;;4919016;29;20252;-53
2021/07/10 11:42:48;;;;;;;3.80;3.60;;;23.90;96.70;;;;;;4919160;29;20664;-50
2021/07/10 11:45:31;;;;;;;3.85;3.55;;;24.00;96.80;;;;;;4919717;29;20259;-51
2021/07/10 11:48:26;;;;;;;3.85;3.53;;;24.00;97.20;;;;;;4919031;29;20577;-50
2021/07/10 11:51:08;;;;;;;4.07;3.00;;;23.90;96.40;;;;;;4918784;29;20319;-52
2021/07/10 11:53:36;;;;;;;5.60;3.25;;;23.80;96.50;;;;;;4918860;29;20586;-48
2021/07/10 11:56:06;;;;;;;3.00;2.80;;;23.80;96.60;;;;;;4918839;29;20772;-49
2021/07/10 11:58:37;;;;;;;2.95;2.75;;;23.80;96.40;;;;;;4922579;29;20217;-50
2021/07/10 12:01:05;;;;;;;3.42;2.80;;;23.90;96.30;;;;;;4919726;29;20620;-53
2021/07/10 12:03:35;;;;;;;2.70;2.50;;;24.00;96.10;;;;;;4918301;29;20713;-51
2021/07/10 12:06:03;;;;;;;4.75;3.10;;;24.10;95.80;;;;;;4919578;29;20213;-52
2021/07/10 12:08:31;;;;;;;2.88;2.67;;;24.20;95.50;;;;;;4919309;29;20212;-51
2021/07/10 12:11:03;;;;;;;3.30;2.72;;;24.20;95.00;;;;;;4919354;29;20224;-49
2021/07/10 12:13:34;;;;;;;3.15;2.50;;;24.20;95.00;;;;;;4919225;29;20590;-50
2021/07/10 12:16:05;;;;;;;3.17;2.95;;;24.20;94.50;;;;;;4919129;29;20228;-50
2021/07/10 12:18:36;;;;;;;3.13;2.90;;;24.30;94.40;;;;;;4917967;29;20255;-52
2021/07/10 12:21:08;;;;;;;2.53;2.33;;;24.30;94.20;;;;;;4918383;29;20248;-54
2021/07/10 12:23:38;;;;;;;3.00;2.80;;;24.20;94.00;;;;;;4918274;29;20225;-52
2021/07/10 12:26:10;;;;;;;3.30;3.00;;;24.20;94.00;;;;;;4917676;29;20248;-51
2021/07/10 12:28:40;;;;;;;2.70;2.50;;;24.20;93.90;;;;;;4918061;29;20247;-51
2021/07/10 12:31:17;;;;;;;3.35;3.05;;;24.20;93.60;;;;;;4918758;29;20276;-51
2021/07/10 12:33:54;;;;;;;3.40;3.10;;;24.20;93.60;;;;;;4918203;29;20673;-51
2021/07/10 12:36:25;;;;;;;3.78;3.03;;;24.20;93.50;;;;;;4918254;29;20216;-51
2021/07/10 12:39:01;;;;;;;2.75;2.53;;;24.30;93.70;;;;;;4918208;29;20303;-50
2021/07/10 12:41:33;;;;;;;4.10;2.50;;;24.40;93.30;;;;;;4918258;29;20303;-48
2021/07/10 12:44:22;;;;;;;2.63;2.53;;;24.50;93.40;;;;;;4918315;29;20217;-51
2021/07/10 12:47:00;;;;;;;3.10;2.90;;;24.50;93.40;;;;;;4917338;29;20212;-48
2021/07/10 12:49:36;;;;;;;3.25;2.80;;;24.50;93.20;;;;;;4917845;29;20651;-48